Time;durP1;ratioP1;P1;durP2;ratioP2;P2;SDS_P1;SDS_P2;PMS_P1;PMS_P2;Temp;Humidity;BMP_temperature;BMP_pressure;BME280_temperature;BME280_humidity;BME280_pressure;Samples;Min_cycle;Max_cycle;Signal;HPM_P1;HPM_P2
2021/09/27 00:00:54;;;;;;;6.37;4.22;;;20.40;68.90;;;;;;2328596;54;21884;-72
2021/09/27 00:03:20;;;;;;;8.05;4.45;;;20.40;68.90;;;;;;2321519;54;21483;-76
2021/09/27 00:05:47;;;;;;;6.18;4.37;;;20.40;69.00;;;;;;2319733;54;20991;-70
2021/09/27 00:08:16;;;;;;;5.85;3.90;;;20.40;68.90;;;;;;2319553;54;20947;-73
2021/09/27 00:10:54;;;;;;;5.20;3.90;;;20.40;68.90;;;;;;2322573;54;20979;-74
2021/09/27 00:13:21;;;;;;;5.93;4.10;;;20.40;68.90;;;;;;2333988;54;21022;-70
2021/09/27 00:15:49;;;;;;;5.37;4.03;;;20.50;69.10;;;;;;2326974;54;21420;-76
2021/09/27 00:18:16;;;;;;;5.72;4.28;;;20.40;68.90;;;;;;2332354;54;20908;-69
2021/09/27 00:20:46;;;;;;;5.82;4.57;;;20.50;69.10;;;;;;2322793;54;20943;-72
2021/09/27 00:23:13;;;;;;;6.60;4.93;;;20.50;69.10;;;;;;2549774;52;20975;-71
2021/09/27 00:25:40;;;;;;;7.37;4.68;;;20.50;69.20;;;;;;2329760;54;20986;-76
2021/09/27 00:28:07;;;;;;;6.72;4.45;;;20.50;69.20;;;;;;2320850;54;21011;-71
2021/09/27 00:30:34;;;;;;;6.72;4.40;;;20.50;69.20;;;;;;2317193;54;21026;-71
2021/09/27 00:33:02;;;;;;;6.78;4.03;;;20.50;69.20;;;;;;2322104;54;21039;-75
2021/09/27 00:35:31;;;;;;;6.47;4.22;;;20.50;69.20;;;;;;2320422;54;21038;-72
2021/09/27 00:37:57;;;;;;;5.87;4.07;;;20.50;69.10;;;;;;2553412;52;20967;-69
2021/09/27 00:40:26;;;;;;;6.10;4.25;;;20.50;69.10;;;;;;2554802;52;20927;-73
2021/09/27 00:42:53;;;;;;;5.95;4.43;;;20.50;69.10;;;;;;2559226;52;21007;-70
2021/09/27 00:45:21;;;;;;;6.57;4.30;;;20.50;69.10;;;;;;2327107;54;21034;-71
2021/09/27 00:47:47;;;;;;;5.40;3.80;;;20.50;69.10;;;;;;2319882;54;20923;-73
2021/09/27 00:50:14;;;;;;;6.07;4.10;;;20.50;69.10;;;;;;2325246;54;20995;-70
2021/09/27 00:52:41;;;;;;;5.22;3.55;;;20.50;69.10;;;;;;2328494;54;21067;-74
2021/09/27 00:55:08;;;;;;;5.28;3.70;;;20.50;68.90;;;;;;2320151;54;20967;-72
2021/09/27 00:57:34;;;;;;;6.82;4.62;;;20.50;68.90;;;;;;2453265;52;20945;-75
2021/09/27 01:00:00;;;;;;;6.32;4.62;;;20.50;68.90;;;;;;2325933;54;20999;-71
2021/09/27 01:02:27;;;;;;;6.57;4.30;;;20.40;68.70;;;;;;2555830;52;20935;-70
2021/09/27 01:04:54;;;;;;;6.30;4.55;;;20.40;68.80;;;;;;2483067;52;20954;-67
2021/09/27 01:09:05;;;;;;;6.37;4.43;;;20.40;68.80;;;;;;2550231;52;20967;-75
2021/09/27 01:13:09;;;;;;;5.00;3.42;;;20.40;68.60;;;;;;2329341;54;21891;-70
2021/09/27 01:16:35;;;;;;;4.72;3.08;;;20.30;68.30;;;;;;2563676;52;21051;-70
2021/09/27 01:19:33;;;;;;;4.93;3.47;;;20.30;68.30;;;;;;2319072;54;21058;-70
2021/09/27 01:22:19;;;;;;;5.12;3.70;;;20.30;68.60;;;;;;2325873;54;21011;-70
2021/09/27 01:26:35;;;;;;;5.07;3.42;;;20.20;68.70;;;;;;2545416;52;21099;-70
2021/09/27 01:29:28;;;;;;;5.25;3.50;;;20.20;68.70;;;;;;2390082;52;21010;-75
2021/09/27 01:32:26;;;;;;;6.37;3.92;;;20.20;69.00;;;;;;2325851;54;20975;-74
2021/09/27 01:36:00;;;;;;;6.53;4.30;;;20.20;69.00;;;;;;2315709;54;20983;-77
2021/09/27 01:38:27;;;;;;;;;;;20.20;69.00;;;;;;2324563;54;20903;-74
2021/09/27 01:41:30;;;;;;;5.00;3.20;;;20.20;68.90;;;;;;2322643;54;20060;-74
2021/09/27 01:44:34;;;;;;;5.10;3.40;;;20.20;68.80;;;;;;2328835;54;21023;-71
2021/09/27 01:47:06;;;;;;;5.85;3.90;;;20.10;68.70;;;;;;2301497;55;20993;-71
2021/09/27 01:50:14;;;;;;;6.57;3.72;;;20.10;68.80;;;;;;2328988;54;20960;-76
2021/09/27 01:52:53;;;;;;;6.40;3.62;;;20.10;68.80;;;;;;2325666;54;20967;-69
2021/09/27 01:55:35;;;;;;;6.15;3.60;;;20.10;68.90;;;;;;2325871;54;21074;-71
2021/09/27 01:59:35;;;;;;;5.57;3.83;;;20.00;68.70;;;;;;2311079;54;21018;-73
2021/09/27 02:02:22;;;;;;;4.62;3.05;;;20.00;68.50;;;;;;2403367;53;21026;-70
2021/09/27 02:05:11;;;;;;;5.57;3.55;;;20.00;68.40;;;;;;2326268;54;21027;-75
2021/09/27 02:07:48;;;;;;;4.60;3.45;;;19.90;68.40;;;;;;2321433;54;21010;-70
2021/09/27 02:10:21;;;;;;;6.12;3.50;;;19.90;68.40;;;;;;2331887;54;21437;-79
2021/09/27 02:12:53;;;;;;;4.60;3.17;;;19.90;68.40;;;;;;2319566;54;20990;-70
2021/09/27 02:15:24;;;;;;;5.80;4.25;;;19.80;68.30;;;;;;2335416;53;20905;-70
2021/09/27 02:20:04;;;;;;;6.10;4.37;;;19.70;68.10;;;;;;2319670;54;20955;-70
2021/09/27 02:22:45;;;;;;;7.18;2.67;;;19.70;67.80;;;;;;2535152;52;20939;-72
2021/09/27 02:25:31;;;;;;;6.05;3.92;;;19.60;67.70;;;;;;2551983;52;21066;-70
2021/09/27 02:28:00;;;;;;;6.43;3.72;;;19.60;67.80;;;;;;2311593;55;21062;-70
2021/09/27 02:31:01;;;;;;;5.28;3.83;;;19.50;67.90;;;;;;2327370;54;20995;-70
2021/09/27 02:35:08;;;;;;;6.28;3.97;;;19.40;68.40;;;;;;2550547;52;20974;-72
2021/09/27 02:37:44;;;;;;;6.50;3.37;;;19.40;67.60;;;;;;2337502;55;21047;-70
2021/09/27 02:40:28;;;;;;;4.62;2.85;;;19.30;67.70;;;;;;2321493;54;20971;-70
2021/09/27 02:42:56;;;;;;;4.97;3.10;;;19.30;67.80;;;;;;2327110;54;21018;-70
2021/09/27 02:45:23;;;;;;;5.78;3.92;;;19.20;67.80;;;;;;2573860;53;21396;-70
2021/09/27 02:47:58;;;;;;;5.15;3.37;;;19.20;67.80;;;;;;2481981;52;22004;-70
2021/09/27 02:50:28;;;;;;;4.95;3.08;;;19.10;67.80;;;;;;2491828;53;20963;-72
2021/09/27 02:52:55;;;;;;;4.72;3.22;;;19.10;67.90;;;;;;2326270;54;21010;-74
2021/09/27 02:56:57;;;;;;;5.18;3.50;;;19.00;67.80;;;;;;2328186;54;20990;-74
2021/09/27 02:59:49;;;;;;;4.28;2.80;;;19.00;67.90;;;;;;2562807;52;21843;-70
2021/09/27 03:02:40;;;;;;;5.25;3.50;;;18.90;67.70;;;;;;2323159;54;21030;-80
2021/09/27 03:10:57;;;;;;;5.20;3.45;;;18.90;67.70;;;;;;2337707;54;20971;-69
2021/09/27 03:13:33;;;;;;;4.10;2.53;;;18.80;67.60;;;;;;2328963;54;21035;-70
2021/09/27 03:19:19;;;;;;;4.95;3.28;;;18.70;67.50;;;;;;2555605;52;20990;-70
2021/09/27 03:21:56;;;;;;;;;;;18.60;67.50;;;;;;2328097;54;21031;-70
2021/09/27 03:24:53;;;;;;;4.93;2.67;;;18.60;67.50;;;;;;2523916;52;20075;-70
2021/09/27 03:28:59;;;;;;;4.97;3.17;;;18.50;67.70;;;;;;2300899;54;21239;-73
2021/09/27 03:33:00;;;;;;;4.90;3.12;;;18.50;68.00;;;;;;2401107;53;21916;-70
2021/09/27 03:35:43;;;;;;;4.00;2.58;;;18.40;68.10;;;;;;2326849;54;20967;-70
2021/09/27 03:38:19;;;;;;;5.45;3.65;;;18.40;68.30;;;;;;2325032;54;21800;-70
2021/09/27 03:47:16;;;;;;;5.72;3.62;;;18.40;68.50;;;;;;2318903;54;21099;-75
2021/09/27 03:49:53;;;;;;;6.22;3.37;;;18.40;68.60;;;;;;2324653;54;21062;-69
2021/09/27 03:52:25;;;;;;;10.70;6.43;;;18.40;69.20;;;;;;2321232;54;21091;-72
2021/09/27 03:55:07;;;;;;;18.40;10.63;;;18.40;69.50;;;;;;2325993;54;21115;-70
2021/09/27 03:57:50;;;;;;;15.02;9.43;;;18.40;69.80;;;;;;2441107;53;21011;-73
2021/09/27 04:05:09;;;;;;;12.45;7.75;;;18.40;70.00;;;;;;2321510;54;20948;-72
2021/09/27 04:07:55;;;;;;;8.50;4.78;;;18.50;70.00;;;;;;2551913;52;20939;-76
2021/09/27 04:10:30;;;;;;;7.95;4.50;;;18.60;69.80;;;;;;2340933;54;21022;-70
2021/09/27 04:13:51;;;;;;;7.85;5.18;;;18.60;69.80;;;;;;2321147;54;20956;-69
2021/09/27 04:20:03;;;;;;;6.30;3.97;;;18.60;69.70;;;;;;2303242;54;20925;-71
2021/09/27 04:22:58;;;;;;;4.90;3.12;;;18.60;69.80;;;;;;2382468;53;21428;-74
2021/09/27 04:25:40;;;;;;;5.00;3.47;;;18.70;70.00;;;;;;2323689;54;21042;-78
2021/09/27 04:28:48;;;;;;;5.80;3.75;;;18.70;70.10;;;;;;2329924;54;21922;-73
2021/09/27 04:32:34;;;;;;;6.22;4.57;;;18.70;70.00;;;;;;2322099;54;21035;-71
2021/09/27 04:38:01;;;;;;;5.95;3.90;;;18.70;70.00;;;;;;2438205;52;21980;-72
2021/09/27 04:40:58;;;;;;;8.20;4.47;;;18.70;69.90;;;;;;2333837;53;21740;-75
2021/09/27 04:46:08;;;;;;;5.80;4.20;;;18.80;69.50;;;;;;2380196;52;21604;-75
2021/09/27 04:49:22;;;;;;;8.18;3.70;;;18.70;69.30;;;;;;2335762;54;20971;-72
2021/09/27 04:52:15;;;;;;;5.60;3.65;;;18.70;69.20;;;;;;2330255;54;20998;-70
2021/09/27 04:55:03;;;;;;;6.45;3.70;;;18.70;69.20;;;;;;2345724;53;2698733;-72
2021/09/27 04:57:48;;;;;;;6.20;4.07;;;18.70;69.10;;;;;;2330627;54;21055;-70
2021/09/27 05:00:21;;;;;;;4.95;3.37;;;18.60;69.10;;;;;;2560224;52;20991;-70
2021/09/27 05:06:04;;;;;;;6.12;3.70;;;18.60;69.10;;;;;;2318907;54;21086;-75
2021/09/27 05:09:02;;;;;;;4.95;2.62;;;18.60;68.70;;;;;;2318140;54;21018;-75
2021/09/27 05:15:05;;;;;;;7.57;3.72;;;18.60;68.70;;;;;;2552586;53;21019;-70
2021/09/27 05:17:59;;;;;;;6.62;3.58;;;18.50;68.50;;;;;;2561559;52;20971;-74
2021/09/27 05:25:39;;;;;;;5.85;3.47;;;18.40;68.20;;;;;;2332630;54;21560;-70
2021/09/27 05:28:19;;;;;;;5.43;3.47;;;18.30;68.10;;;;;;2327803;54;20966;-75
2021/09/27 05:33:29;;;;;;;5.15;3.22;;;18.20;68.10;;;;;;2343002;54;20952;-73
2021/09/27 05:36:18;;;;;;;6.10;3.78;;;18.20;68.10;;;;;;2340151;53;20982;-70
2021/09/27 05:40:26;;;;;;;7.53;4.47;;;18.10;68.20;;;;;;2537831;53;20989;-69
2021/09/27 05:43:22;;;;;;;5.65;3.67;;;18.00;68.20;;;;;;2320147;54;20970;-70
2021/09/27 05:46:21;;;;;;;6.70;4.37;;;18.00;68.40;;;;;;2322749;54;20939;-69
2021/09/27 05:49:02;;;;;;;8.45;4.68;;;17.90;68.30;;;;;;2306594;54;20955;-70
2021/09/27 05:51:50;;;;;;;6.55;4.37;;;17.90;68.50;;;;;;2329846;54;20958;-78
2021/09/27 05:54:56;;;;;;;7.57;4.82;;;17.90;68.50;;;;;;2320584;54;21039;-70
2021/09/27 05:58:57;;;;;;;7.20;4.57;;;17.80;68.60;;;;;;2556746;53;21786;-73
2021/09/27 06:05:31;;;;;;;6.15;4.20;;;17.80;68.60;;;;;;2360193;53;20975;-70
2021/09/27 06:08:36;;;;;;;5.00;3.15;;;17.80;68.60;;;;;;2471589;52;21936;-70
2021/09/27 06:11:27;;;;;;;6.75;3.92;;;17.80;68.70;;;;;;2328898;54;21007;-70
2021/09/27 06:13:56;;;;;;;5.25;3.78;;;17.80;69.00;;;;;;2492018;52;21781;-70
2021/09/27 06:17:30;;;;;;;5.87;3.92;;;17.70;69.00;;;;;;2327722;53;20967;-70
2021/09/27 06:22:59;;;;;;;5.90;3.55;;;17.70;68.90;;;;;;2466195;52;21030;-72
2021/09/27 06:25:41;;;;;;;7.40;4.03;;;17.70;68.90;;;;;;2556793;52;20943;-70
2021/09/27 06:28:24;;;;;;;5.22;3.58;;;17.70;69.20;;;;;;2387395;52;20923;-76
2021/09/27 06:30:56;;;;;;;5.68;3.67;;;17.70;69.30;;;;;;2329656;54;20975;-72
2021/09/27 06:34:53;;;;;;;5.75;3.47;;;17.80;69.70;;;;;;2546984;53;20986;-71
2021/09/27 06:37:20;;;;;;;7.25;3.85;;;17.80;69.60;;;;;;2310676;54;21106;-70
2021/09/27 06:39:47;;;;;;;6.72;3.85;;;17.80;69.80;;;;;;2339954;53;21088;-70
2021/09/27 06:42:13;;;;;;;6.37;4.57;;;17.80;69.90;;;;;;2315720;54;21349;-73
2021/09/27 06:44:43;;;;;;;7.72;5.00;;;17.80;70.10;;;;;;2551619;52;21050;-70
2021/09/27 06:47:09;;;;;;;8.32;5.30;;;17.90;70.30;;;;;;2468154;53;20962;-76
2021/09/27 06:49:38;;;;;;;8.48;5.43;;;17.90;70.40;;;;;;2357827;53;20987;-70
2021/09/27 06:52:04;;;;;;;8.50;5.12;;;18.00;70.60;;;;;;2480206;52;22068;-70
2021/09/27 06:54:35;;;;;;;7.85;4.95;;;18.00;71.40;;;;;;2408202;53;20983;-72
2021/09/27 06:57:01;;;;;;;9.05;4.75;;;18.10;70.90;;;;;;2321903;54;20995;-70
2021/09/27 06:59:28;;;;;;;6.20;4.05;;;18.10;71.00;;;;;;2311004;54;21063;-70
2021/09/27 07:01:58;;;;;;;6.70;4.40;;;18.20;71.20;;;;;;2326859;54;21069;-71
2021/09/27 07:04:24;;;;;;;8.60;4.72;;;18.30;71.40;;;;;;2326553;54;21058;-70
2021/09/27 07:06:51;;;;;;;6.30;4.30;;;18.30;71.50;;;;;;2323961;54;21043;-70
2021/09/27 07:09:18;;;;;;;6.80;4.47;;;18.40;71.70;;;;;;2480817;52;20939;-69
2021/09/27 07:11:45;;;;;;;5.53;3.67;;;18.50;72.00;;;;;;2319491;54;21027;-72
2021/09/27 07:14:13;;;;;;;5.97;3.20;;;18.60;72.20;;;;;;2564846;53;20968;-68
2021/09/27 07:16:41;;;;;;;5.68;3.65;;;18.70;72.40;;;;;;2324776;54;21038;-70
2021/09/27 07:19:10;;;;;;;4.68;3.08;;;18.80;72.60;;;;;;2320575;54;21022;-75
2021/09/27 07:21:37;;;;;;;4.12;2.78;;;18.90;72.80;;;;;;2301545;54;21058;-74
2021/09/27 07:24:03;;;;;;;5.35;2.90;;;19.00;72.80;;;;;;2323902;54;20943;-70
2021/09/27 07:26:30;;;;;;;5.03;3.22;;;19.10;72.90;;;;;;2325254;54;21011;-70
2021/09/27 07:28:57;;;;;;;5.05;3.00;;;19.20;73.00;;;;;;2487252;52;21050;-70
2021/09/27 07:31:26;;;;;;;4.82;3.03;;;19.40;73.10;;;;;;2328138;54;20979;-77
2021/09/27 07:33:52;;;;;;;4.53;3.10;;;19.50;73.10;;;;;;2558670;52;21014;-71
2021/09/27 07:36:19;;;;;;;5.45;3.25;;;19.60;73.00;;;;;;2327114;54;21080;-72
2021/09/27 07:38:45;;;;;;;5.45;2.95;;;19.70;72.90;;;;;;2332808;54;20994;-70
2021/09/27 07:41:12;;;;;;;3.95;2.70;;;19.90;73.00;;;;;;2320402;54;21757;-71
2021/09/27 07:43:39;;;;;;;5.30;3.40;;;19.90;72.80;;;;;;2555162;52;21011;-73
2021/09/27 07:46:06;;;;;;;5.43;3.65;;;20.10;72.70;;;;;;2319520;54;21021;-70
2021/09/27 07:48:33;;;;;;;6.28;3.58;;;20.20;72.50;;;;;;2331448;54;20971;-73
2021/09/27 07:50:59;;;;;;;5.28;3.50;;;20.30;72.40;;;;;;2324177;54;20951;-71
2021/09/27 07:53:26;;;;;;;6.07;3.87;;;20.50;72.40;;;;;;2553167;52;20981;-70
2021/09/27 07:55:52;;;;;;;4.80;3.17;;;20.50;72.20;;;;;;2327509;52;21493;-70
2021/09/27 07:58:18;;;;;;;5.75;3.75;;;20.70;72.10;;;;;;2329060;54;20966;-70
2021/09/27 08:00:46;;;;;;;5.53;3.50;;;20.80;71.90;;;;;;2342172;54;20988;-70
2021/09/27 08:03:13;;;;;;;4.90;3.55;;;20.90;71.80;;;;;;2451528;53;21025;-71
2021/09/27 08:05:40;;;;;;;6.93;3.87;;;20.90;71.40;;;;;;2330335;54;21817;-71
2021/09/27 08:08:06;;;;;;;5.47;3.72;;;21.10;72.00;;;;;;2319473;54;21010;-72
2021/09/27 08:10:34;;;;;;;4.70;3.03;;;21.20;71.20;;;;;;2300199;54;20998;-75
2021/09/27 08:13:01;;;;;;;5.03;3.65;;;21.20;71.00;;;;;;2408122;52;21022;-75
2021/09/27 08:15:29;;;;;;;4.90;3.45;;;21.30;70.80;;;;;;2327163;54;21031;-71
2021/09/27 08:17:56;;;;;;;5.45;3.25;;;21.40;70.60;;;;;;2541132;52;20960;-72
2021/09/27 08:20:25;;;;;;;5.95;3.87;;;21.50;70.60;;;;;;2555817;53;21054;-71
2021/09/27 08:22:55;;;;;;;5.50;3.37;;;21.60;70.50;;;;;;2320592;54;21054;-70
2021/09/27 08:25:22;;;;;;;5.05;3.10;;;21.70;70.60;;;;;;2529061;53;20942;-71
2021/09/27 08:27:49;;;;;;;4.82;3.05;;;21.80;70.40;;;;;;2330969;54;20963;-71
2021/09/27 08:30:24;;;;;;;4.15;3.00;;;21.90;70.50;;;;;;2326592;54;20899;-71
2021/09/27 08:32:51;;;;;;;4.90;3.40;;;22.00;70.00;;;;;;2324864;54;21444;-70
2021/09/27 08:35:17;;;;;;;5.65;3.50;;;22.10;70.00;;;;;;2331189;54;21710;-77
2021/09/27 08:37:44;;;;;;;4.32;2.67;;;22.20;69.80;;;;;;2550451;52;20947;-78
2021/09/27 08:40:30;;;;;;;5.22;2.85;;;22.30;69.90;;;;;;2331045;53;21028;-75
2021/09/27 08:42:59;;;;;;;4.57;3.15;;;22.40;70.00;;;;;;2340310;54;21520;-72
2021/09/27 08:45:26;;;;;;;4.68;3.10;;;22.50;69.70;;;;;;2561016;52;20959;-73
2021/09/27 08:49:21;;;;;;;5.78;2.92;;;22.60;69.60;;;;;;2511451;52;21043;-76
2021/09/27 08:51:48;;;;;;;4.35;2.70;;;22.70;69.20;;;;;;2331126;54;20987;-70
2021/09/27 08:54:22;;;;;;;3.62;2.30;;;22.80;69.40;;;;;;2561552;52;21077;-71
2021/09/27 08:57:09;;;;;;;4.37;2.60;;;22.90;68.90;;;;;;2333179;54;21785;-76
2021/09/27 09:00:25;;;;;;;3.75;2.40;;;23.00;67.80;;;;;;2567927;52;21488;-71
2021/09/27 09:03:16;;;;;;;3.85;2.30;;;23.10;67.50;;;;;;2336705;54;21860;-71
2021/09/27 09:06:10;;;;;;;4.07;2.40;;;23.20;67.20;;;;;;2322661;54;21006;-74
2021/09/27 09:08:56;;;;;;;4.05;2.60;;;23.30;68.00;;;;;;2332454;54;21002;-78
2021/09/27 09:11:53;;;;;;;4.10;2.70;;;23.40;66.80;;;;;;2323070;54;21693;-71
2021/09/27 09:16:56;;;;;;;5.93;2.72;;;23.50;66.00;;;;;;2322925;54;20948;-77
2021/09/27 09:19:26;;;;;;;4.20;2.50;;;23.60;66.20;;;;;;2331207;54;20980;-71
2021/09/27 09:22:34;;;;;;;3.42;2.25;;;23.70;66.80;;;;;;2543484;52;20947;-70
2021/09/27 09:25:07;;;;;;;4.15;2.40;;;23.80;65.80;;;;;;2324667;54;20955;-71
2021/09/27 09:27:34;;;;;;;3.62;2.03;;;23.80;66.30;;;;;;2324108;54;20963;-71
2021/09/27 09:30:00;;;;;;;3.30;2.08;;;23.90;66.40;;;;;;2304739;54;21897;-77
2021/09/27 09:32:28;;;;;;;5.87;2.33;;;23.90;66.30;;;;;;2329963;54;21797;-72
2021/09/27 09:35:34;;;;;;;3.10;1.90;;;24.00;66.10;;;;;;2562193;53;20957;-71
2021/09/27 09:38:09;;;;;;;3.10;1.87;;;24.10;65.00;;;;;;2331505;54;21035;-76
2021/09/27 09:40:57;;;;;;;3.45;1.67;;;24.20;65.80;;;;;;2331066;54;20937;-72
2021/09/27 09:43:37;;;;;;;3.80;1.67;;;24.20;65.30;;;;;;2329643;54;20955;-71
2021/09/27 09:48:10;;;;;;;2.92;1.67;;;24.30;65.70;;;;;;2356023;53;20943;-72
2021/09/27 09:50:36;;;;;;;3.03;1.80;;;24.50;66.10;;;;;;2564926;53;21034;-70
2021/09/27 09:53:16;;;;;;;3.15;2.10;;;24.50;65.70;;;;;;2322267;54;21059;-71
2021/09/27 09:55:52;;;;;;;3.10;1.90;;;24.60;63.90;;;;;;2327355;54;20963;-70
2021/09/27 09:58:42;;;;;;;2.95;1.77;;;24.70;64.20;;;;;;2331217;54;21011;-76
2021/09/27 10:01:25;;;;;;;4.05;1.90;;;24.80;64.40;;;;;;2311980;54;20959;-71
2021/09/27 10:04:09;;;;;;;3.95;1.83;;;24.90;63.90;;;;;;2322866;54;20963;-70
2021/09/27 10:06:43;;;;;;;4.00;1.98;;;24.90;63.50;;;;;;2407728;53;21086;-70
2021/09/27 10:09:16;;;;;;;2.62;1.52;;;24.90;63.40;;;;;;2320487;54;20962;-72
2021/09/27 10:11:56;;;;;;;2.70;1.65;;;25.00;64.00;;;;;;2328367;54;21626;-72
2021/09/27 10:14:55;;;;;;;3.78;1.50;;;25.00;63.60;;;;;;2314937;54;20934;-70
2021/09/27 10:17:30;;;;;;;3.37;1.90;;;25.00;63.10;;;;;;2404435;53;21039;-73
2021/09/27 10:20:17;;;;;;;3.22;1.70;;;25.10;63.30;;;;;;2327798;54;20967;-71
2021/09/27 10:23:00;;;;;;;2.97;1.75;;;25.20;63.10;;;;;;2328569;54;21506;-73
2021/09/27 10:25:45;;;;;;;;;;;25.20;63.30;;;;;;2324534;54;21043;-71
2021/09/27 10:28:15;;;;;;;3.53;1.75;;;25.20;63.50;;;;;;2329207;54;20140;-78
2021/09/27 10:30:44;;;;;;;3.10;1.70;;;25.30;64.00;;;;;;2323453;54;21002;-72
2021/09/27 10:33:22;;;;;;;3.45;2.05;;;25.40;63.90;;;;;;2321466;54;21499;-71
2021/09/27 10:36:04;;;;;;;3.30;1.95;;;25.50;63.30;;;;;;2306531;54;20930;-73
2021/09/27 10:38:32;;;;;;;2.80;1.70;;;25.50;61.80;;;;;;2367051;53;20947;-74
2021/09/27 10:41:24;;;;;;;3.53;1.80;;;25.60;62.90;;;;;;2561067;52;20975;-69
2021/09/27 10:43:53;;;;;;;2.70;1.30;;;25.70;62.40;;;;;;2556200;52;20942;-74
2021/09/27 10:46:19;;;;;;;3.12;1.70;;;25.70;62.90;;;;;;2324356;54;20944;-76
2021/09/27 10:48:49;;;;;;;3.25;1.60;;;25.70;62.70;;;;;;2328803;54;21561;-70
2021/09/27 10:51:17;;;;;;;3.30;1.80;;;25.70;62.20;;;;;;2323678;54;20909;-71
2021/09/27 10:53:53;;;;;;;3.50;1.80;;;25.80;62.30;;;;;;2315805;54;21174;-72
2021/09/27 10:56:37;;;;;;;3.50;1.87;;;25.80;61.40;;;;;;2302873;54;21076;-70
2021/09/27 10:59:09;;;;;;;4.15;1.83;;;25.80;61.10;;;;;;2326188;54;20986;-75
2021/09/27 11:01:52;;;;;;;3.28;1.92;;;25.90;62.00;;;;;;2303922;55;21574;-70
2021/09/27 11:05:28;;;;;;;3.40;2.03;;;25.90;61.40;;;;;;2314172;54;21050;-72
2021/09/27 11:07:56;;;;;;;2.80;1.40;;;26.00;60.80;;;;;;2326821;54;21014;-72
2021/09/27 11:10:37;;;;;;;3.62;1.35;;;26.00;62.00;;;;;;2329292;54;20995;-72
2021/09/27 11:13:04;;;;;;;2.75;1.42;;;26.00;61.40;;;;;;2327037;54;20947;-71
2021/09/27 11:15:35;;;;;;;3.05;1.70;;;26.00;61.40;;;;;;2553866;52;21397;-70
2021/09/27 11:18:15;;;;;;;3.20;1.90;;;26.00;61.00;;;;;;2324663;54;20975;-75
2021/09/27 11:21:47;;;;;;;4.37;1.83;;;26.10;60.40;;;;;;2324177;54;20975;-70
2021/09/27 11:24:48;;;;;;;3.40;1.50;;;26.20;60.70;;;;;;2330057;54;21100;-72
2021/09/27 11:27:34;;;;;;;2.92;1.60;;;26.30;60.00;;;;;;2321096;54;21071;-70
2021/09/27 11:30:23;;;;;;;5.80;1.87;;;26.30;60.00;;;;;;2317061;54;21039;-69
2021/09/27 11:32:54;;;;;;;2.70;1.50;;;26.40;60.10;;;;;;2317648;54;21031;-70
2021/09/27 11:35:41;;;;;;;2.90;1.55;;;26.40;61.00;;;;;;2562041;52;20958;-70
2021/09/27 11:39:23;;;;;;;3.00;1.30;;;26.40;60.00;;;;;;2331737;54;21067;-71
2021/09/27 11:42:13;;;;;;;3.35;1.27;;;26.50;60.00;;;;;;2555344;52;20940;-72
2021/09/27 11:45:14;;;;;;;3.00;1.30;;;26.60;59.90;;;;;;2328997;54;20974;-70
2021/09/27 11:47:57;;;;;;;2.40;1.42;;;26.60;59.90;;;;;;2324357;54;21864;-70
2021/09/27 11:51:03;;;;;;;2.83;1.42;;;26.70;59.40;;;;;;2311603;54;21443;-71
2021/09/27 11:54:06;;;;;;;2.40;1.20;;;26.70;58.10;;;;;;2331121;54;20943;-74
2021/09/27 11:58:07;;;;;;;2.50;1.20;;;26.70;57.90;;;;;;2323467;54;21014;-69
2021/09/27 12:00:42;;;;;;;2.15;1.20;;;26.70;58.10;;;;;;2324121;54;20946;-74
2021/09/27 12:06:13;;;;;;;2.25;1.17;;;26.70;58.30;;;;;;2340019;53;21015;-71
2021/09/27 12:08:49;;;;;;;2.05;1.08;;;26.70;58.60;;;;;;2327768;54;21478;-71
2021/09/27 12:11:16;;;;;;;2.35;1.00;;;26.70;58.50;;;;;;2324163;54;20959;-69
2021/09/27 12:13:56;;;;;;;2.33;1.12;;;26.80;59.00;;;;;;2322596;54;20974;-72
2021/09/27 12:16:32;;;;;;;2.80;1.40;;;26.80;58.60;;;;;;2569583;53;21439;-69
2021/09/27 12:19:33;;;;;;;2.53;1.10;;;26.80;58.00;;;;;;2308514;54;21568;-72
2021/09/27 12:22:06;;;;;;;2.15;1.10;;;26.90;57.40;;;;;;2327704;54;21015;-71
2021/09/27 12:24:37;;;;;;;2.37;1.20;;;26.90;57.70;;;;;;2330780;54;21103;-71
2021/09/27 12:27:08;;;;;;;2.80;1.00;;;26.90;57.70;;;;;;2324303;54;21140;-69
2021/09/27 12:30:49;;;;;;;2.87;1.10;;;26.90;57.50;;;;;;2321971;54;21380;-71
2021/09/27 12:33:25;;;;;;;2.47;1.20;;;26.90;56.90;;;;;;2326089;54;20963;-70
2021/09/27 12:36:07;;;;;;;2.87;1.20;;;26.90;57.50;;;;;;2327088;54;21086;-68
2021/09/27 12:38:34;;;;;;;4.37;1.50;;;26.90;57.10;;;;;;2327782;54;20951;-69
2021/09/27 12:41:00;;;;;;;2.15;0.90;;;26.80;57.50;;;;;;2562870;52;21074;-68
2021/09/27 12:43:30;;;;;;;2.40;1.25;;;26.80;57.60;;;;;;2320282;54;21511;-68
2021/09/27 12:46:01;;;;;;;3.47;1.17;;;26.80;57.40;;;;;;2553791;53;20947;-68
2021/09/27 12:48:30;;;;;;;2.00;0.95;;;26.80;57.50;;;;;;2328269;54;21035;-69
2021/09/27 12:51:00;;;;;;;2.20;0.90;;;26.80;58.00;;;;;;2528428;52;21077;-67
2021/09/27 12:53:39;;;;;;;2.08;1.05;;;26.80;57.70;;;;;;2339952;54;21522;-71
2021/09/27 12:56:05;;;;;;;3.03;1.10;;;26.80;57.30;;;;;;2324614;54;20967;-70
2021/09/27 12:58:38;;;;;;;2.62;1.05;;;26.80;57.60;;;;;;2326072;54;20919;-69
2021/09/27 13:01:08;;;;;;;3.83;1.50;;;26.80;57.00;;;;;;2559732;52;21019;-70
2021/09/27 13:03:35;;;;;;;2.72;1.40;;;26.80;57.20;;;;;;2305563;54;21043;-70
2021/09/27 13:07:43;;;;;;;2.30;1.20;;;26.80;57.30;;;;;;2556044;52;20963;-68
2021/09/27 13:11:33;;;;;;;3.28;1.33;;;26.80;56.80;;;;;;2337015;54;21424;-68
2021/09/27 13:14:29;;;;;;;2.60;1.23;;;26.80;56.90;;;;;;2340516;53;20982;-73
2021/09/27 13:17:20;;;;;;;2.85;1.20;;;26.70;56.70;;;;;;2416093;53;20951;-68
2021/09/27 13:19:49;;;;;;;2.53;1.10;;;26.70;56.40;;;;;;2321272;54;21546;-70
2021/09/27 13:24:08;;;;;;;2.28;1.20;;;26.70;57.30;;;;;;2328973;54;21381;-68
2021/09/27 13:30:14;;;;;;;2.12;1.10;;;26.70;56.90;;;;;;2333204;54;20975;-70
2021/09/27 13:32:54;;;;;;;2.37;1.00;;;26.70;57.40;;;;;;2327927;54;20980;-68
2021/09/27 13:35:38;;;;;;;3.00;1.23;;;26.70;57.40;;;;;;2318837;54;21734;-72
2021/09/27 13:38:12;;;;;;;2.10;1.17;;;26.70;57.10;;;;;;2321550;54;21552;-68
2021/09/27 13:41:07;;;;;;;2.70;1.20;;;26.70;57.40;;;;;;2511618;52;21007;-71
2021/09/27 13:43:45;;;;;;;2.72;1.25;;;26.70;56.60;;;;;;2320277;54;20972;-71
2021/09/27 13:46:17;;;;;;;2.75;1.20;;;26.60;56.70;;;;;;2328763;54;20967;-68
2021/09/27 13:48:44;;;;;;;4.12;1.55;;;26.60;56.50;;;;;;2339439;53;20963;-68
2021/09/27 13:51:10;;;;;;;2.92;1.50;;;26.60;56.80;;;;;;2545788;52;21046;-69
2021/09/27 13:53:39;;;;;;;2.83;1.30;;;26.60;56.90;;;;;;2330859;54;21615;-72
2021/09/27 13:56:08;;;;;;;2.40;1.12;;;26.50;56.70;;;;;;2339534;54;20951;-68
2021/09/27 13:58:36;;;;;;;2.12;1.15;;;26.50;56.90;;;;;;2456796;52;20963;-69
2021/09/27 14:01:02;;;;;;;2.12;1.10;;;26.50;57.10;;;;;;2330694;55;21482;-71
2021/09/27 14:03:29;;;;;;;4.07;1.83;;;26.50;57.20;;;;;;2321881;54;21887;-70
2021/09/27 14:05:59;;;;;;;2.53;1.10;;;26.40;56.80;;;;;;2322354;54;20931;-69
2021/09/27 14:08:28;;;;;;;2.60;1.30;;;26.40;56.90;;;;;;2328660;54;21011;-68
2021/09/27 14:10:54;;;;;;;2.10;1.05;;;26.40;57.10;;;;;;2548445;53;21015;-67
2021/09/27 14:13:26;;;;;;;2.30;1.23;;;26.40;57.40;;;;;;2523746;52;21742;-68
2021/09/27 14:15:54;;;;;;;4.75;2.40;;;26.40;57.40;;;;;;2328505;54;20967;-74
2021/09/27 14:18:20;;;;;;;3.50;1.85;;;26.40;57.50;;;;;;2322749;54;20970;-69
2021/09/27 14:20:46;;;;;;;4.95;1.90;;;26.30;57.40;;;;;;2335370;54;20979;-68
2021/09/27 14:23:13;;;;;;;2.50;1.40;;;26.40;57.50;;;;;;2323245;54;20967;-68
2021/09/27 14:25:42;;;;;;;2.70;1.33;;;26.30;57.30;;;;;;2321679;54;20978;-68
2021/09/27 14:28:08;;;;;;;2.80;1.50;;;26.30;57.40;;;;;;2337586;54;20996;-69
2021/09/27 14:30:34;;;;;;;3.45;1.90;;;26.30;57.40;;;;;;2326410;54;20971;-74
2021/09/27 14:33:02;;;;;;;2.67;1.40;;;26.30;57.50;;;;;;2304144;54;21351;-68
2021/09/27 14:35:29;;;;;;;2.90;1.48;;;26.30;57.50;;;;;;2334456;54;20998;-68
2021/09/27 14:37:56;;;;;;;2.50;1.33;;;26.30;57.70;;;;;;2319223;54;21014;-72
2021/09/27 14:40:23;;;;;;;2.75;1.33;;;26.30;57.60;;;;;;2562135;52;21015;-73
2021/09/27 14:42:50;;;;;;;2.85;1.30;;;26.30;57.50;;;;;;2565265;52;21748;-71
2021/09/27 14:45:17;;;;;;;3.05;1.45;;;26.30;57.40;;;;;;2325718;54;21090;-71
2021/09/27 14:47:43;;;;;;;2.03;1.10;;;26.30;57.40;;;;;;2329165;54;21552;-70
2021/09/27 14:50:13;;;;;;;3.15;1.37;;;26.30;57.40;;;;;;2328637;54;21070;-68
2021/09/27 14:52:39;;;;;;;2.80;1.65;;;26.30;57.40;;;;;;2327245;54;20994;-68
2021/09/27 14:55:06;;;;;;;3.12;1.60;;;26.20;57.40;;;;;;2489228;52;20978;-70
2021/09/27 14:57:33;;;;;;;3.22;1.35;;;26.20;57.20;;;;;;2326871;54;20955;-69
2021/09/27 14:59:59;;;;;;;2.70;1.30;;;26.20;57.30;;;;;;2417764;54;20992;-69
2021/09/27 15:02:25;;;;;;;2.40;1.25;;;26.10;57.20;;;;;;2326016;54;20971;-68
2021/09/27 15:04:52;;;;;;;3.10;1.40;;;26.10;57.40;;;;;;2330490;54;21468;-69
2021/09/27 15:07:19;;;;;;;2.22;1.23;;;26.10;57.50;;;;;;2376308;53;20967;-68